Mali Ston, Croatia
Current Conditions -  °F | °C
As of 9:30 AM on Friday 24 Oct 2014 (Local Time) from LDDU Reporting Station
Clear Clear  
Wind Chill: 52°   Ceiling: Unl
Heat Index: 52°   Visibility: 6mi
Dew Point: 32°   Wind: 22mph
Humidity: 47%   Direction: 20°NNE
Pressure: 29.77"   Gusts: NA
Location:  42.84°N, 17.69°E
Report Text: LDDU 240730Z 02019KT 350V060 CAVOK 11/00 Q1008 BECMG 29008KT
Loading
Personal Weather Stations






























Interactive Weather Map
Tropical Storm Tracking
New forecast layout! Learn more

10-Day Weather Forecast

Advertisements
Track Severe Weather on mobile